sensor_id;sensor_type;location;lat;lon;timestamp;temperature;humidity
64599;SHT31;51008;51.504;11.548;2022-09-09T00:05:14;14.49;87.72
64599;SHT31;51008;51.504;11.548;2022-09-09T00:10:37;14.47;87.96
64599;SHT31;51008;51.504;11.548;2022-09-09T00:21:13;14.29;88.50
64599;SHT31;51008;51.504;11.548;2022-09-09T00:26:47;14.22;88.86
64599;SHT31;51008;51.504;11.548;2022-09-09T00:31:50;14.30;88.48
64599;SHT31;51008;51.504;11.548;2022-09-09T00:36:53;14.39;88.07
64599;SHT31;51008;51.504;11.548;2022-09-09T00:47:46;14.40;88.04
64599;SHT31;51008;51.504;11.548;2022-09-09T00:58:20;14.42;87.94
64599;SHT31;51008;51.504;11.548;2022-09-09T01:03:54;14.46;87.64
64599;SHT31;51008;51.504;11.548;2022-09-09T01:09:32;14.37;87.99
64599;SHT31;51008;51.504;11.548;2022-09-09T01:19:49;14.25;88.38
64599;SHT31;51008;51.504;11.548;2022-09-09T01:25:15;14.17;88.43
64599;SHT31;51008;51.504;11.548;2022-09-09T01:30:39;14.15;88.51
64599;SHT31;51008;51.504;11.548;2022-09-09T01:35:51;14.17;88.41
64599;SHT31;51008;51.504;11.548;2022-09-09T01:40:56;14.11;88.61
64599;SHT31;51008;51.504;11.548;2022-09-09T01:46:04;14.05;88.66
64599;SHT31;51008;51.504;11.548;2022-09-09T01:51:08;14.04;88.83
64599;SHT31;51008;51.504;11.548;2022-09-09T01:56:32;13.94;89.03
64599;SHT31;51008;51.504;11.548;2022-09-09T02:12:48;13.67;89.54
64599;SHT31;51008;51.504;11.548;2022-09-09T02:17:51;13.66;90.21
64599;SHT31;51008;51.504;11.548;2022-09-09T02:22:53;13.74;89.83
64599;SHT31;51008;51.504;11.548;2022-09-09T02:27:57;13.74;89.83
64599;SHT31;51008;51.504;11.548;2022-09-09T02:32:59;13.71;89.78
64599;SHT31;51008;51.504;11.548;2022-09-09T02:38:21;13.62;90.08
64599;SHT31;51008;51.504;11.548;2022-09-09T02:43:33;13.53;89.97
64599;SHT31;51008;51.504;11.548;2022-09-09T02:49:00;13.32;90.57
64599;SHT31;51008;51.504;11.548;2022-09-09T02:54:42;13.16;91.08
64599;SHT31;51008;51.504;11.548;2022-09-09T02:59:40;13.04;91.46
64599;SHT31;51008;51.504;11.548;2022-09-09T03:04:44;12.91;92.13
64599;SHT31;51008;51.504;11.548;2022-09-09T03:09:47;12.86;92.23
64599;SHT31;51008;51.504;11.548;2022-09-09T03:14:49;12.81;91.84
64599;SHT31;51008;51.504;11.548;2022-09-09T03:19:50;12.72;91.75
64599;SHT31;51008;51.504;11.548;2022-09-09T03:24:52;12.69;91.87
64599;SHT31;51008;51.504;11.548;2022-09-09T03:29:53;12.60;92.10
64599;SHT31;51008;51.504;11.548;2022-09-09T03:34:57;12.53;92.18
64599;SHT31;51008;51.504;11.548;2022-09-09T03:39:59;12.45;92.84
64599;SHT31;51008;51.504;11.548;2022-09-09T03:45:00;12.35;93.30
64599;SHT31;51008;51.504;11.548;2022-09-09T03:50:02;12.34;93.05
64599;SHT31;51008;51.504;11.548;2022-09-09T03:55:05;12.31;93.36
64599;SHT31;51008;51.504;11.548;2022-09-09T04:00:07;12.38;93.47
64599;SHT31;51008;51.504;11.548;2022-09-09T04:05:17;12.43;93.93
64599;SHT31;51008;51.504;11.548;2022-09-09T04:10:20;12.46;94.04
64599;SHT31;51008;51.504;11.548;2022-09-09T04:15:22;12.53;94.34
64599;SHT31;51008;51.504;11.548;2022-09-09T04:20:23;12.56;94.41
64599;SHT31;51008;51.504;11.548;2022-09-09T04:25:25;12.52;94.28
64599;SHT31;51008;51.504;11.548;2022-09-09T04:30:26;12.50;94.52
64599;SHT31;51008;51.504;11.548;2022-09-09T04:35:27;12.59;94.52
64599;SHT31;51008;51.504;11.548;2022-09-09T04:40:29;12.63;94.64
64599;SHT31;51008;51.504;11.548;2022-09-09T04:45:30;12.66;94.96
64599;SHT31;51008;51.504;11.548;2022-09-09T04:50:31;12.66;94.52
64599;SHT31;51008;51.504;11.548;2022-09-09T04:55:33;12.64;94.50
64599;SHT31;51008;51.504;11.548;2022-09-09T05:00:35;12.67;94.55
64599;SHT31;51008;51.504;11.548;2022-09-09T05:05:39;12.76;94.65
64599;SHT31;51008;51.504;11.548;2022-09-09T05:10:40;12.88;94.87
64599;SHT31;51008;51.504;11.548;2022-09-09T05:15:41;13.03;95.03
64599;SHT31;51008;51.504;11.548;2022-09-09T05:20:42;13.12;95.21
64599;SHT31;51008;51.504;11.548;2022-09-09T05:25:43;13.15;95.14
64599;SHT31;51008;51.504;11.548;2022-09-09T05:30:44;13.25;95.30
64599;SHT31;51008;51.504;11.548;2022-09-09T05:35:45;13.39;95.57
64599;SHT31;51008;51.504;11.548;2022-09-09T05:40:47;13.53;95.46
64599;SHT31;51008;51.504;11.548;2022-09-09T05:46:02;13.65;95.60
64599;SHT31;51008;51.504;11.548;2022-09-09T05:51:06;13.67;95.24
64599;SHT31;51008;51.504;11.548;2022-09-09T05:56:19;13.80;95.18
64599;SHT31;51008;51.504;11.548;2022-09-09T06:01:30;14.00;94.37
64599;SHT31;51008;51.504;11.548;2022-09-09T06:06:34;14.29;92.69
64599;SHT31;51008;51.504;11.548;2022-09-09T06:11:38;14.62;91.04
64599;SHT31;51008;51.504;11.548;2022-09-09T06:16:39;14.91;89.08
64599;SHT31;51008;51.504;11.548;2022-09-09T06:21:48;15.14;87.78
64599;SHT31;51008;51.504;11.548;2022-09-09T06:26:50;15.25;87.50
64599;SHT31;51008;51.504;11.548;2022-09-09T06:31:56;15.36;88.46
64599;SHT31;51008;51.504;11.548;2022-09-09T06:37:00;15.42;87.86
64599;SHT31;51008;51.504;11.548;2022-09-09T06:42:09;15.52;88.65
64599;SHT31;51008;51.504;11.548;2022-09-09T06:47:28;15.67;87.49
64599;SHT31;51008;51.504;11.548;2022-09-09T06:52:32;15.85;86.65
64599;SHT31;51008;51.504;11.548;2022-09-09T06:57:33;15.95;87.03
64599;SHT31;51008;51.504;11.548;2022-09-09T07:02:36;16.12;86.16
64599;SHT31;51008;51.504;11.548;2022-09-09T07:07:37;16.15;88.03
64599;SHT31;51008;51.504;11.548;2022-09-09T07:12:38;16.23;87.86
64599;SHT31;51008;51.504;11.548;2022-09-09T07:17:43;16.29;86.93
64599;SHT31;51008;51.504;11.548;2022-09-09T07:22:44;17.22;86.10
64599;SHT31;51008;51.504;11.548;2022-09-09T07:27:46;18.43;81.33
64599;SHT31;51008;51.504;11.548;2022-09-09T07:32:47;19.41;75.19
64599;SHT31;51008;51.504;11.548;2022-09-09T07:37:48;19.98;71.06
64599;SHT31;51008;51.504;11.548;2022-09-09T07:42:50;20.33;70.98
64599;SHT31;51008;51.504;11.548;2022-09-09T07:47:52;20.81;69.34
64599;SHT31;51008;51.504;11.548;2022-09-09T07:52:53;21.06;68.91
64599;SHT31;51008;51.504;11.548;2022-09-09T07:57:55;20.64;69.58
64599;SHT31;51008;51.504;11.548;2022-09-09T08:02:57;21.00;67.57
64599;SHT31;51008;51.504;11.548;2022-09-09T08:07:58;21.43;68.01
64599;SHT31;51008;51.504;11.548;2022-09-09T08:13:00;20.44;68.19
64599;SHT31;51008;51.504;11.548;2022-09-09T08:18:01;19.82;71.06
64599;SHT31;51008;51.504;11.548;2022-09-09T08:23:02;20.23;70.53
64599;SHT31;51008;51.504;11.548;2022-09-09T08:28:04;20.29;71.16
64599;SHT31;51008;51.504;11.548;2022-09-09T08:33:05;21.05;69.57
64599;SHT31;51008;51.504;11.548;2022-09-09T08:38:06;21.41;66.91
64599;SHT31;51008;51.504;11.548;2022-09-09T08:43:08;21.61;67.42
64599;SHT31;51008;51.504;11.548;2022-09-09T08:48:36;22.24;66.47
64599;SHT31;51008;51.504;11.548;2022-09-09T08:53:44;22.65;66.25
64599;SHT31;51008;51.504;11.548;2022-09-09T08:58:50;23.13;63.31
64599;SHT31;51008;51.504;11.548;2022-09-09T09:04:32;23.39;64.27
64599;SHT31;51008;51.504;11.548;2022-09-09T09:14:55;22.94;63.03
64599;SHT31;51008;51.504;11.548;2022-09-09T09:19:56;22.55;64.55
64599;SHT31;51008;51.504;11.548;2022-09-09T09:30:18;21.77;67.88
64599;SHT31;51008;51.504;11.548;2022-09-09T09:35:19;21.53;68.54
64599;SHT31;51008;51.504;11.548;2022-09-09T09:40:22;21.43;67.96
64599;SHT31;51008;51.504;11.548;2022-09-09T09:50:50;21.74;66.74
64599;SHT31;51008;51.504;11.548;2022-09-09T09:55:59;21.30;70.17
64599;SHT31;51008;51.504;11.548;2022-09-09T10:01:01;22.27;73.28
64599;SHT31;51008;51.504;11.548;2022-09-09T10:06:04;23.30;67.04
64599;SHT31;51008;51.504;11.548;2022-09-09T10:26:35;22.98;61.82
64599;SHT31;51008;51.504;11.548;2022-09-09T10:32:07;22.58;65.61
64599;SHT31;51008;51.504;11.548;2022-09-09T10:42:34;22.16;70.98
64599;SHT31;51008;51.504;11.548;2022-09-09T10:58:37;22.02;74.36
64599;SHT31;51008;51.504;11.548;2022-09-09T11:03:41;23.15;69.60
64599;SHT31;51008;51.504;11.548;2022-09-09T11:08:42;24.03;64.97
64599;SHT31;51008;51.504;11.548;2022-09-09T11:13:56;23.64;61.32
64599;SHT31;51008;51.504;11.548;2022-09-09T11:19:03;23.75;61.82
64599;SHT31;51008;51.504;11.548;2022-09-09T11:24:12;23.39;60.50
64599;SHT31;51008;51.504;11.548;2022-09-09T11:35:17;23.71;58.88
64599;SHT31;51008;51.504;11.548;2022-09-09T11:40:27;23.88;57.34
64599;SHT31;51008;51.504;11.548;2022-09-09T11:45:29;23.33;59.25
64599;SHT31;51008;51.504;11.548;2022-09-09T11:50:35;23.03;60.28
64599;SHT31;51008;51.504;11.548;2022-09-09T11:55:36;22.91;59.56
64599;SHT31;51008;51.504;11.548;2022-09-09T12:00:40;23.68;59.07
64599;SHT31;51008;51.504;11.548;2022-09-09T12:05:44;23.98;56.22
64599;SHT31;51008;51.504;11.548;2022-09-09T12:10:57;24.10;55.69
64599;SHT31;51008;51.504;11.548;2022-09-09T12:15:59;24.13;54.17
64599;SHT31;51008;51.504;11.548;2022-09-09T12:21:12;23.58;55.18
64599;SHT31;51008;51.504;11.548;2022-09-09T12:26:43;23.57;54.13
64599;SHT31;51008;51.504;11.548;2022-09-09T12:31:56;23.27;54.60
64599;SHT31;51008;51.504;11.548;2022-09-09T12:37:05;23.02;54.83
64599;SHT31;51008;51.504;11.548;2022-09-09T12:42:16;23.26;56.47
64599;SHT31;51008;51.504;11.548;2022-09-09T12:47:21;23.68;54.42
64599;SHT31;51008;51.504;11.548;2022-09-09T12:52:32;23.86;52.63
64599;SHT31;51008;51.504;11.548;2022-09-09T12:57:36;24.12;53.90
64599;SHT31;51008;51.504;11.548;2022-09-09T13:02:49;23.78;52.84
64599;SHT31;51008;51.504;11.548;2022-09-09T13:07:51;24.24;51.63
64599;SHT31;51008;51.504;11.548;2022-09-09T13:12:52;24.09;52.62
64599;SHT31;51008;51.504;11.548;2022-09-09T13:17:56;23.55;53.66
64599;SHT31;51008;51.504;11.548;2022-09-09T13:22:57;22.92;53.99
64599;SHT31;51008;51.504;11.548;2022-09-09T13:28:03;23.50;53.64
64599;SHT31;51008;51.504;11.548;2022-09-09T13:38:14;23.65;53.05
64599;SHT31;51008;51.504;11.548;2022-09-09T13:43:21;23.98;54.30
64599;SHT31;51008;51.504;11.548;2022-09-09T13:48:23;23.89;51.50
64599;SHT31;51008;51.504;11.548;2022-09-09T13:53:24;24.05;51.87
64599;SHT31;51008;51.504;11.548;2022-09-09T13:58:25;23.89;50.96
64599;SHT31;51008;51.504;11.548;2022-09-09T14:03:26;23.74;51.73
64599;SHT31;51008;51.504;11.548;2022-09-09T14:08:27;23.90;49.09
64599;SHT31;51008;51.504;11.548;2022-09-09T14:13:29;23.64;46.86
64599;SHT31;51008;51.504;11.548;2022-09-09T14:18:30;23.67;48.85
64599;SHT31;51008;51.504;11.548;2022-09-09T14:23:31;23.67;48.26
64599;SHT31;51008;51.504;11.548;2022-09-09T14:28:33;23.46;46.58
64599;SHT31;51008;51.504;11.548;2022-09-09T14:33:35;23.24;47.33
64599;SHT31;51008;51.504;11.548;2022-09-09T14:38:38;23.12;47.13
64599;SHT31;51008;51.504;11.548;2022-09-09T14:43:59;22.65;49.36
64599;SHT31;51008;51.504;11.548;2022-09-09T14:49:00;22.36;50.86
64599;SHT31;51008;51.504;11.548;2022-09-09T14:54:01;22.62;51.19
64599;SHT31;51008;51.504;11.548;2022-09-09T14:59:02;22.65;51.75
64599;SHT31;51008;51.504;11.548;2022-09-09T15:04:04;22.29;51.00
64599;SHT31;51008;51.504;11.548;2022-09-09T15:09:06;22.03;53.10
64599;SHT31;51008;51.504;11.548;2022-09-09T15:14:08;22.29;52.88
64599;SHT31;51008;51.504;11.548;2022-09-09T15:19:09;22.57;52.09
64599;SHT31;51008;51.504;11.548;2022-09-09T15:24:10;22.69;51.84
64599;SHT31;51008;51.504;11.548;2022-09-09T15:29:11;22.76;52.51
64599;SHT31;51008;51.504;11.548;2022-09-09T15:34:12;22.65;51.15
64599;SHT31;51008;51.504;11.548;2022-09-09T15:39:15;22.60;50.58
64599;SHT31;51008;51.504;11.548;2022-09-09T15:44:17;22.43;48.04
64599;SHT31;51008;51.504;11.548;2022-09-09T15:49:20;22.34;46.98
64599;SHT31;51008;51.504;11.548;2022-09-09T15:54:22;22.26;48.58
64599;SHT31;51008;51.504;11.548;2022-09-09T15:59:25;22.26;49.85
64599;SHT31;51008;51.504;11.548;2022-09-09T16:04:27;22.16;48.47
64599;SHT31;51008;51.504;11.548;2022-09-09T16:09:29;22.06;48.17
64599;SHT31;51008;51.504;11.548;2022-09-09T16:14:30;21.96;48.57
64599;SHT31;51008;51.504;11.548;2022-09-09T16:19:32;21.82;48.49
64599;SHT31;51008;51.504;11.548;2022-09-09T16:24:33;21.61;48.98
64599;SHT31;51008;51.504;11.548;2022-09-09T16:29:34;21.51;49.83
64599;SHT31;51008;51.504;11.548;2022-09-09T16:34:35;21.46;50.61
64599;SHT31;51008;51.504;11.548;2022-09-09T16:39:36;21.27;51.64
64599;SHT31;51008;51.504;11.548;2022-09-09T16:44:37;21.26;51.47
64599;SHT31;51008;51.504;11.548;2022-09-09T16:49:38;21.18;51.41
64599;SHT31;51008;51.504;11.548;2022-09-09T16:54:39;21.06;51.99
64599;SHT31;51008;51.504;11.548;2022-09-09T16:59:42;20.89;52.73
64599;SHT31;51008;51.504;11.548;2022-09-09T17:04:43;20.84;53.34
64599;SHT31;51008;51.504;11.548;2022-09-09T17:09:44;20.68;54.49
64599;SHT31;51008;51.504;11.548;2022-09-09T17:14:45;20.50;55.31
64599;SHT31;51008;51.504;11.548;2022-09-09T17:19:46;20.25;56.86
64599;SHT31;51008;51.504;11.548;2022-09-09T17:24:47;19.74;59.63
64599;SHT31;51008;51.504;11.548;2022-09-09T17:29:48;19.49;62.13
64599;SHT31;51008;51.504;11.548;2022-09-09T17:34:49;19.38;61.00
64599;SHT31;51008;51.504;11.548;2022-09-09T17:39:50;19.23;61.48
64599;SHT31;51008;51.504;11.548;2022-09-09T17:44:51;19.23;61.55
64599;SHT31;51008;51.504;11.548;2022-09-09T17:49:52;19.11;62.63
64599;SHT31;51008;51.504;11.548;2022-09-09T17:54:53;19.03;62.94
64599;SHT31;51008;51.504;11.548;2022-09-09T17:59:54;18.88;63.62
64599;SHT31;51008;51.504;11.548;2022-09-09T18:04:55;18.68;64.57
64599;SHT31;51008;51.504;11.548;2022-09-09T18:09:56;18.58;65.42
64599;SHT31;51008;51.504;11.548;2022-09-09T18:14:57;18.36;66.03
64599;SHT31;51008;51.504;11.548;2022-09-09T18:28:39;18.10;67.12
64599;SHT31;51008;51.504;11.548;2022-09-09T18:33:42;17.94;68.33
64599;SHT31;51008;51.504;11.548;2022-09-09T18:38:44;17.71;69.11
64599;SHT31;51008;51.504;11.548;2022-09-09T18:43:45;17.60;69.53
64599;SHT31;51008;51.504;11.548;2022-09-09T18:48:47;17.49;69.59
64599;SHT31;51008;51.504;11.548;2022-09-09T18:53:51;17.46;69.81
64599;SHT31;51008;51.504;11.548;2022-09-09T18:58:53;17.35;70.21
64599;SHT31;51008;51.504;11.548;2022-09-09T19:03:55;17.23;70.78
64599;SHT31;51008;51.504;11.548;2022-09-09T19:08:57;17.14;71.02
64599;SHT31;51008;51.504;11.548;2022-09-09T19:14:00;17.08;71.17
64599;SHT31;51008;51.504;11.548;2022-09-09T19:19:06;16.96;71.49
64599;SHT31;51008;51.504;11.548;2022-09-09T19:24:13;16.92;71.66
64599;SHT31;51008;51.504;11.548;2022-09-09T19:29:19;16.91;71.50
64599;SHT31;51008;51.504;11.548;2022-09-09T19:34:21;16.89;71.94
64599;SHT31;51008;51.504;11.548;2022-09-09T19:39:21;16.80;72.18
64599;SHT31;51008;51.504;11.548;2022-09-09T19:44:23;16.63;72.92
64599;SHT31;51008;51.504;11.548;2022-09-09T19:49:29;16.52;73.41
64599;SHT31;51008;51.504;11.548;2022-09-09T19:54:31;16.46;74.06
64599;SHT31;51008;51.504;11.548;2022-09-09T19:59:32;16.40;74.09
64599;SHT31;51008;51.504;11.548;2022-09-09T20:04:33;16.39;74.02
64599;SHT31;51008;51.504;11.548;2022-09-09T20:09:34;16.34;74.57
64599;SHT31;51008;51.504;11.548;2022-09-09T20:14:35;16.29;74.53
64599;SHT31;51008;51.504;11.548;2022-09-09T20:19:35;16.16;75.29
64599;SHT31;51008;51.504;11.548;2022-09-09T20:24:36;16.05;75.75
64599;SHT31;51008;51.504;11.548;2022-09-09T20:29:37;15.90;75.99
64599;SHT31;51008;51.504;11.548;2022-09-09T20:34:38;15.74;76.74
64599;SHT31;51008;51.504;11.548;2022-09-09T20:39:39;15.66;76.90
64599;SHT31;51008;51.504;11.548;2022-09-09T20:44:40;15.57;77.42
64599;SHT31;51008;51.504;11.548;2022-09-09T20:49:41;15.50;77.94
64599;SHT31;51008;51.504;11.548;2022-09-09T20:54:42;15.46;77.76
64599;SHT31;51008;51.504;11.548;2022-09-09T20:59:43;15.25;78.14
64599;SHT31;51008;51.504;11.548;2022-09-09T21:04:44;15.16;78.88
64599;SHT31;51008;51.504;11.548;2022-09-09T21:09:45;15.07;79.31
64599;SHT31;51008;51.504;11.548;2022-09-09T21:14:45;15.02;79.67
64599;SHT31;51008;51.504;11.548;2022-09-09T21:19:46;15.15;79.50
64599;SHT31;51008;51.504;11.548;2022-09-09T21:24:47;15.25;79.13
64599;SHT31;51008;51.504;11.548;2022-09-09T21:29:48;15.32;79.11
64599;SHT31;51008;51.504;11.548;2022-09-09T21:34:49;15.38;78.69
64599;SHT31;51008;51.504;11.548;2022-09-09T21:39:50;15.42;78.49
64599;SHT31;51008;51.504;11.548;2022-09-09T21:44:51;15.50;78.14
64599;SHT31;51008;51.504;11.548;2022-09-09T21:49:52;15.53;78.32
64599;SHT31;51008;51.504;11.548;2022-09-09T21:54:53;15.42;78.63
64599;SHT31;51008;51.504;11.548;2022-09-09T21:59:54;15.46;78.64
64599;SHT31;51008;51.504;11.548;2022-09-09T22:04:55;15.43;78.63
64599;SHT31;51008;51.504;11.548;2022-09-09T22:09:56;15.36;78.93
64599;SHT31;51008;51.504;11.548;2022-09-09T22:14:56;15.29;79.00
64599;SHT31;51008;51.504;11.548;2022-09-09T22:19:57;15.18;79.32
64599;SHT31;51008;51.504;11.548;2022-09-09T22:24:58;15.15;79.81
64599;SHT31;51008;51.504;11.548;2022-09-09T22:29:59;15.12;79.92
64599;SHT31;51008;51.504;11.548;2022-09-09T22:35:00;15.08;79.92
64599;SHT31;51008;51.504;11.548;2022-09-09T22:40:02;14.91;80.09
64599;SHT31;51008;51.504;11.548;2022-09-09T22:45:04;14.77;80.60
64599;SHT31;51008;51.504;11.548;2022-09-09T22:50:05;14.63;80.85
64599;SHT31;51008;51.504;11.548;2022-09-09T22:55:07;14.52;82.13
64599;SHT31;51008;51.504;11.548;2022-09-09T23:00:08;14.52;82.22
64599;SHT31;51008;51.504;11.548;2022-09-09T23:05:09;14.56;82.40
64599;SHT31;51008;51.504;11.548;2022-09-09T23:10:10;14.64;82.18
64599;SHT31;51008;51.504;11.548;2022-09-09T23:15:11;14.59;82.65
64599;SHT31;51008;51.504;11.548;2022-09-09T23:20:12;14.50;82.73
64599;SHT31;51008;51.504;11.548;2022-09-09T23:25:13;14.47;82.81
64599;SHT31;51008;51.504;11.548;2022-09-09T23:30:14;14.47;82.88
64599;SHT31;51008;51.504;11.548;2022-09-09T23:35:15;14.52;82.80
64599;SHT31;51008;51.504;11.548;2022-09-09T23:40:16;14.55;82.59
64599;SHT31;51008;51.504;11.548;2022-09-09T23:45:17;14.56;82.67
64599;SHT31;51008;51.504;11.548;2022-09-09T23:50:18;14.55;82.58
64599;SHT31;51008;51.504;11.548;2022-09-09T23:55:19;14.43;83.02
